createdAt,value
2019-03-02T00:00:07.973Z,0.00
2019-03-02T00:01:09.806Z,0.00
2019-03-02T00:02:07.813Z,0.00
2019-03-02T00:03:07.733Z,0.00
2019-03-02T00:04:10.075Z,0.00
2019-03-02T00:05:07.577Z,0.00
2019-03-02T00:06:07.495Z,0.00
2019-03-02T00:07:08.062Z,0.00
2019-03-02T00:08:07.335Z,0.00
2019-03-02T00:09:07.255Z,0.00
2019-03-02T00:10:09.978Z,0.00
2019-03-02T00:11:07.096Z,0.00
2019-03-02T00:12:07.016Z,0.00
2019-03-02T00:13:07.503Z,0.00
2019-03-02T00:14:06.856Z,0.00
2019-03-02T00:15:06.778Z,0.00
2019-03-02T00:16:07.583Z,0.00
2019-03-02T00:17:06.617Z,0.00
2019-03-02T00:18:06.537Z,0.00
2019-03-02T00:19:07.663Z,0.00
2019-03-02T00:20:06.377Z,0.00
2019-03-02T00:21:06.297Z,0.00
2019-03-02T00:22:06.839Z,0.00
2019-03-02T00:23:06.137Z,0.00
2019-03-02T00:24:06.060Z,0.00
2019-03-02T00:25:05.978Z,0.00
2019-03-02T00:26:06.187Z,0.00
2019-03-02T00:27:05.818Z,0.00
2019-03-02T00:28:05.740Z,0.00
2019-03-02T00:29:07.759Z,0.00
2019-03-02T00:30:05.577Z,0.00
2019-03-02T00:31:05.498Z,0.00
2019-03-02T00:32:05.935Z,0.00
2019-03-02T00:33:05.342Z,0.00
2019-03-02T00:34:05.260Z,0.00
2019-03-02T00:35:07.161Z,0.00
2019-03-02T00:36:05.097Z,0.00
2019-03-02T00:37:05.019Z,0.00
2019-03-02T00:38:08.804Z,0.00
2019-03-02T00:39:04.859Z,0.00
2019-03-02T00:40:04.829Z,0.00
2019-03-02T00:41:06.911Z,0.00
2019-03-02T00:42:04.620Z,0.00
2019-03-02T00:43:04.539Z,0.00
2019-03-02T00:44:04.814Z,0.00
2019-03-02T00:45:04.379Z,0.00
2019-03-02T00:46:04.300Z,0.00
2019-03-02T00:47:04.220Z,0.00
2019-03-02T00:48:04.141Z,0.00
2019-03-02T00:49:04.059Z,0.00
2019-03-02T00:50:03.981Z,0.00
2019-03-02T00:51:03.902Z,0.00
2019-03-02T00:52:03.870Z,0.00
2019-03-02T00:53:03.740Z,0.00
2019-03-02T00:54:03.659Z,0.00
2019-03-02T00:55:03.581Z,0.00
2019-03-02T00:56:04.045Z,0.00
2019-03-02T00:57:03.420Z,0.00
2019-03-02T00:58:03.343Z,0.00
2019-03-02T00:59:03.906Z,0.00
2019-03-02T01:00:03.193Z,0.00
2019-03-02T01:01:03.100Z,0.00
2019-03-02T01:02:04.365Z,0.00
2019-03-02T01:03:02.941Z,0.00
2019-03-02T01:04:02.862Z,0.00
2019-03-02T01:05:03.098Z,0.00
2019-03-02T01:06:02.704Z,0.00
2019-03-02T01:07:02.622Z,0.00
2019-03-02T01:08:02.554Z,0.00
2019-03-02T01:09:02.462Z,0.00
2019-03-02T01:10:02.381Z,0.00
2019-03-02T01:11:02.302Z,0.00
2019-03-02T01:12:02.224Z,0.00
2019-03-02T01:13:02.146Z,0.00
2019-03-02T01:14:02.162Z,0.00
2019-03-02T01:15:05.093Z,0.00
2019-03-02T01:16:01.903Z,0.00
2019-03-02T01:17:01.822Z,0.00
2019-03-02T01:18:03.670Z,0.00
2019-03-02T01:19:01.664Z,0.00
2019-03-02T01:20:01.584Z,0.00
2019-03-02T01:21:03.887Z,0.00
2019-03-02T01:22:01.425Z,0.00
2019-03-02T01:23:01.343Z,0.00
2019-03-02T01:24:03.271Z,0.00
2019-03-02T01:25:01.183Z,0.00
2019-03-02T01:26:01.105Z,0.00
2019-03-02T01:27:01.023Z,0.00
2019-03-02T01:28:00.944Z,0.00
2019-03-02T01:29:00.862Z,0.00
2019-03-02T01:30:00.783Z,0.00
2019-03-02T01:31:01.847Z,0.00
2019-03-02T01:32:00.624Z,0.00
2019-03-02T01:33:00.550Z,0.00
2019-03-02T01:34:00.674Z,0.00
2019-03-02T01:35:00.384Z,0.00
2019-03-02T01:36:00.322Z,0.00
2019-03-02T01:37:00.228Z,0.00
2019-03-02T01:38:00.144Z,0.00
2019-03-02T01:39:00.065Z,0.00
2019-03-02T01:40:00.793Z,0.00
2019-03-02T01:40:59.905Z,0.00
2019-03-02T01:41:59.825Z,0.00
2019-03-02T01:43:01.922Z,0.00
2019-03-02T01:43:59.665Z,0.00
2019-03-02T01:44:59.584Z,0.00
2019-03-02T01:45:59.850Z,0.00
2019-03-02T01:46:59.425Z,0.00
2019-03-02T01:47:59.347Z,0.00
2019-03-02T01:49:01.555Z,0.00
2019-03-02T01:49:59.184Z,0.00
2019-03-02T01:50:59.105Z,0.00
2019-03-02T01:51:59.129Z,0.00
2019-03-02T01:52:58.944Z,0.00
2019-03-02T01:53:58.863Z,0.00
2019-03-02T01:54:58.789Z,0.00
2019-03-02T01:55:58.705Z,0.00
2019-03-02T01:56:58.626Z,0.00
2019-03-02T01:57:58.549Z,0.00
2019-03-02T01:59:00.642Z,0.00
2019-03-02T01:59:58.484Z,0.00
2019-03-02T02:00:58.304Z,0.00
2019-03-02T02:02:00.136Z,0.00
2019-03-02T02:02:58.150Z,0.00
2019-03-02T02:03:58.063Z,0.00
2019-03-02T02:04:58.426Z,0.00
2019-03-02T02:05:57.905Z,0.00
2019-03-02T02:06:57.823Z,0.00
2019-03-02T02:07:57.741Z,0.00
2019-03-02T02:08:57.666Z,0.00
2019-03-02T02:09:57.582Z,0.00
2019-03-02T02:10:57.502Z,0.00
2019-03-02T02:11:57.421Z,0.00
2019-03-02T02:12:57.341Z,0.00
2019-03-02T02:13:57.259Z,0.00
2019-03-02T02:14:57.180Z,0.00
2019-03-02T02:15:57.100Z,0.00
2019-03-02T02:16:57.037Z,0.00
2019-03-02T02:17:56.938Z,0.00
2019-03-02T02:18:59.266Z,0.00
2019-03-02T02:19:56.779Z,0.00
2019-03-02T02:20:56.700Z,0.00
2019-03-02T02:21:58.760Z,0.00
2019-03-02T02:22:56.536Z,0.00
2019-03-02T02:23:56.457Z,0.00
2019-03-02T02:24:56.813Z,0.00
2019-03-02T02:25:56.298Z,0.00
2019-03-02T02:26:56.214Z,0.00
2019-03-02T02:27:57.874Z,0.00
2019-03-02T02:28:56.053Z,0.00
2019-03-02T02:29:55.973Z,0.00
2019-03-02T02:30:55.895Z,0.00
2019-03-02T02:31:55.816Z,0.00
2019-03-02T02:33:03.173Z,0.00
2019-03-02T02:33:55.651Z,0.00
2019-03-02T02:34:56.477Z,0.00
2019-03-02T02:35:55.490Z,0.00
2019-03-02T02:36:58.142Z,0.00
2019-03-02T02:37:55.335Z,0.00
2019-03-02T02:38:55.789Z,0.00
2019-03-02T02:39:55.169Z,0.00
2019-03-02T02:40:55.091Z,0.00
2019-03-02T02:42:00.028Z,0.00
2019-03-02T02:42:54.927Z,0.00
2019-03-02T02:43:59.084Z,0.00
2019-03-02T02:44:54.765Z,0.00
2019-03-02T02:45:55.233Z,0.00
2019-03-02T02:46:54.604Z,0.00
2019-03-02T02:47:54.794Z,0.00
2019-03-02T02:48:54.442Z,0.00
2019-03-02T02:49:54.363Z,0.00
2019-03-02T02:50:54.285Z,0.00
2019-03-02T02:51:54.203Z,0.00
2019-03-02T02:52:54.129Z,0.00
2019-03-02T02:53:54.042Z,0.00
2019-03-02T02:54:57.651Z,0.00
2019-03-02T02:55:53.880Z,0.00
2019-03-02T02:56:54.287Z,0.00
2019-03-02T02:57:53.742Z,0.00
2019-03-02T02:58:56.153Z,0.00
2019-03-02T02:59:53.562Z,0.00
2019-03-02T03:00:55.031Z,0.00
2019-03-02T03:01:53.395Z,0.00
2019-03-02T03:02:53.327Z,0.00
2019-03-02T03:03:54.895Z,0.00
2019-03-02T03:04:53.154Z,0.00
2019-03-02T03:05:54.086Z,0.00
2019-03-02T03:06:52.993Z,0.00
2019-03-02T03:07:55.362Z,0.00
2019-03-02T03:08:52.832Z,0.00
2019-03-02T03:09:52.755Z,0.00
2019-03-02T03:10:52.672Z,0.00
2019-03-02T03:11:52.591Z,0.00
2019-03-02T03:12:56.798Z,0.00
2019-03-02T03:13:52.440Z,0.00
2019-03-02T03:14:54.202Z,0.00
2019-03-02T03:15:52.267Z,0.00
2019-03-02T03:16:54.078Z,0.00
2019-03-02T03:17:52.107Z,0.00
2019-03-02T03:18:53.688Z,0.00
2019-03-02T03:19:51.948Z,0.00
2019-03-02T03:20:51.865Z,0.00
2019-03-02T03:21:51.836Z,0.00
2019-03-02T03:22:51.710Z,0.00
2019-03-02T03:23:53.932Z,0.00
2019-03-02T03:24:51.543Z,0.00
2019-03-02T03:25:56.231Z,0.00
2019-03-02T03:26:51.383Z,0.00
2019-03-02T03:27:51.846Z,0.00
2019-03-02T03:28:51.223Z,0.00
2019-03-02T03:29:51.361Z,0.00
2019-03-02T03:30:51.061Z,0.00
2019-03-02T03:31:51.082Z,0.00
2019-03-02T03:32:56.108Z,0.00
2019-03-02T03:33:50.820Z,0.00
2019-03-02T03:34:50.756Z,0.00
2019-03-02T03:35:51.690Z,0.00
2019-03-02T03:36:50.578Z,0.00
2019-03-02T03:37:52.396Z,0.00
2019-03-02T03:38:50.418Z,0.00
2019-03-02T03:39:50.338Z,0.00
2019-03-02T03:40:50.257Z,0.00
2019-03-02T03:41:50.178Z,0.00
2019-03-02T03:42:50.097Z,0.00
2019-03-02T03:43:50.015Z,0.00
2019-03-02T03:44:49.944Z,0.00
2019-03-02T03:45:49.859Z,0.00
2019-03-02T03:46:49.776Z,0.00
2019-03-02T03:47:49.711Z,0.00
2019-03-02T03:48:51.357Z,0.00
2019-03-02T03:49:49.534Z,0.00
2019-03-02T03:50:52.398Z,0.00
2019-03-02T03:51:49.374Z,0.00
2019-03-02T03:52:50.424Z,0.00
2019-03-02T03:53:49.222Z,0.00
2019-03-02T03:54:49.135Z,0.00
2019-03-02T03:55:49.053Z,0.00
2019-03-02T03:56:48.977Z,0.00
2019-03-02T03:57:48.993Z,0.00
2019-03-02T03:58:48.813Z,0.00
2019-03-02T03:59:53.377Z,0.00
2019-03-02T04:00:48.652Z,0.00
2019-03-02T04:01:52.241Z,0.00
2019-03-02T04:02:48.490Z,0.00
2019-03-02T04:03:51.635Z,0.00
2019-03-02T04:04:48.331Z,0.00
2019-03-02T04:05:48.750Z,0.00
2019-03-02T04:06:48.170Z,0.00
2019-03-02T04:07:49.675Z,0.00
2019-03-02T04:08:48.011Z,0.00
2019-03-02T04:09:48.323Z,0.00
2019-03-02T04:10:47.849Z,0.00
2019-03-02T04:11:47.771Z,0.00
2019-03-02T04:12:47.691Z,0.00
2019-03-02T04:13:47.615Z,0.00
2019-03-02T04:14:47.529Z,0.00
2019-03-02T04:15:47.448Z,0.00
2019-03-02T04:16:47.368Z,0.00
2019-03-02T04:17:47.288Z,0.00
2019-03-02T04:18:50.130Z,0.00
2019-03-02T04:19:47.128Z,0.00
2019-03-02T04:20:49.659Z,0.00
2019-03-02T04:21:46.971Z,0.00
2019-03-02T04:22:46.895Z,0.00
2019-03-02T04:23:46.807Z,0.00
2019-03-02T04:24:46.738Z,0.00
2019-03-02T04:25:46.644Z,0.00
2019-03-02T04:26:46.567Z,0.00
2019-03-02T04:27:53.107Z,0.00
2019-03-02T04:28:46.405Z,0.00
2019-03-02T04:29:50.355Z,0.00
2019-03-02T04:30:46.247Z,0.00
2019-03-02T04:31:48.833Z,0.00
2019-03-02T04:32:46.087Z,0.00
2019-03-02T04:33:46.107Z,0.00
2019-03-02T04:34:45.925Z,0.00
2019-03-02T04:35:45.845Z,0.00
2019-03-02T04:36:47.274Z,0.00
2019-03-02T04:37:45.685Z,0.00
2019-03-02T04:38:45.610Z,0.00
2019-03-02T04:39:46.401Z,0.00
2019-03-02T04:40:45.443Z,0.00
2019-03-02T04:41:45.364Z,0.00
2019-03-02T04:42:46.448Z,0.00
2019-03-02T04:43:45.205Z,0.00
2019-03-02T04:44:45.124Z,0.00
2019-03-02T04:45:45.043Z,0.00
2019-03-02T04:46:47.788Z,0.00
2019-03-02T04:47:44.885Z,0.00
2019-03-02T04:48:44.804Z,0.00
2019-03-02T04:49:47.489Z,0.00
2019-03-02T04:50:44.643Z,0.00
2019-03-02T04:51:44.564Z,0.00
2019-03-02T04:52:46.592Z,0.00
2019-03-02T04:53:44.402Z,0.00
2019-03-02T04:54:44.326Z,0.00
2019-03-02T04:55:45.638Z,0.00
2019-03-02T04:56:44.162Z,0.00
2019-03-02T04:57:44.085Z,0.00
2019-03-02T04:58:46.929Z,0.00
2019-03-02T04:59:43.923Z,0.00
2019-03-02T05:00:43.841Z,0.00
2019-03-02T05:01:46.157Z,0.00
2019-03-02T05:02:43.688Z,0.00
2019-03-02T05:03:43.603Z,0.00
2019-03-02T05:04:43.520Z,0.00
2019-03-02T05:05:44.216Z,0.00
2019-03-02T05:06:43.712Z,0.00
2019-03-02T05:07:43.282Z,0.00
2019-03-02T05:08:43.202Z,0.00
2019-03-02T05:09:43.121Z,0.00
2019-03-02T05:10:43.041Z,0.00
2019-03-02T05:11:42.962Z,0.00
2019-03-02T05:12:42.880Z,0.00
2019-03-02T05:13:42.800Z,0.00
2019-03-02T05:14:42.720Z,0.00
2019-03-02T05:15:42.642Z,0.00
2019-03-02T05:16:42.561Z,0.00
2019-03-02T05:17:43.010Z,0.00
2019-03-02T05:18:42.403Z,0.00
2019-03-02T05:19:42.320Z,0.00
2019-03-02T05:20:42.368Z,0.00
2019-03-02T05:21:43.542Z,0.00
2019-03-02T05:22:42.077Z,0.00
2019-03-02T05:23:42.003Z,0.00
2019-03-02T05:24:43.513Z,0.00
2019-03-02T05:25:41.837Z,0.00
2019-03-02T05:26:41.757Z,0.00
2019-03-02T05:27:41.680Z,0.00
2019-03-02T05:28:42.975Z,0.00
2019-03-02T05:29:41.517Z,0.00
2019-03-02T05:30:41.439Z,0.00
2019-03-02T05:31:42.061Z,0.00
2019-03-02T05:32:41.276Z,0.00
2019-03-02T05:33:41.196Z,0.00
2019-03-02T05:34:41.116Z,0.00
2019-03-02T05:35:41.036Z,0.00
2019-03-02T05:36:40.957Z,0.00
2019-03-02T05:37:40.879Z,0.00
2019-03-02T05:38:40.797Z,0.00
2019-03-02T05:39:40.719Z,0.00
2019-03-02T05:40:40.634Z,0.00
2019-03-02T05:41:40.558Z,0.00
2019-03-02T05:42:40.475Z,0.00
2019-03-02T05:43:40.394Z,0.00
2019-03-02T05:44:40.315Z,0.00
2019-03-02T05:45:40.234Z,0.00
2019-03-02T05:46:40.154Z,0.00
2019-03-02T05:47:40.072Z,0.00
2019-03-02T05:48:42.876Z,0.00
2019-03-02T05:49:39.913Z,0.00
2019-03-02T05:50:39.832Z,0.00
2019-03-02T05:51:42.767Z,0.00
2019-03-02T05:52:39.673Z,0.00
2019-03-02T05:53:39.591Z,0.00
2019-03-02T05:54:41.565Z,0.00
2019-03-02T05:55:39.432Z,0.00
2019-03-02T05:56:39.352Z,0.00
2019-03-02T05:57:40.438Z,0.00
2019-03-02T05:58:39.192Z,0.00
2019-03-02T05:59:39.113Z,0.00
2019-03-02T06:00:39.068Z,0.00
2019-03-02T06:01:40.295Z,0.00
2019-03-02T06:02:38.872Z,0.00
2019-03-02T06:03:38.792Z,0.00
2019-03-02T06:04:38.710Z,0.00
2019-03-02T06:05:38.630Z,0.00
2019-03-02T06:06:38.551Z,0.00
2019-03-02T06:07:38.471Z,0.00
2019-03-02T06:08:38.391Z,0.00
2019-03-02T06:09:38.411Z,0.00
2019-03-02T06:10:38.230Z,0.00
2019-03-02T06:11:39.393Z,0.00
2019-03-02T06:12:38.070Z,0.00
2019-03-02T06:13:37.995Z,0.00
2019-03-02T06:14:37.910Z,5.63
2019-03-02T06:15:39.716Z,5.63
2019-03-02T06:16:37.750Z,5.63
2019-03-02T06:17:37.669Z,5.63
2019-03-02T06:18:37.590Z,5.63
2019-03-02T06:19:37.509Z,5.63
2019-03-02T06:20:37.428Z,11.25
2019-03-02T06:21:37.348Z,11.25
2019-03-02T06:22:37.269Z,11.25
2019-03-02T06:23:37.188Z,11.25
2019-03-02T06:24:37.684Z,11.25
2019-03-02T06:25:37.027Z,11.25
2019-03-02T06:26:36.949Z,11.25
2019-03-02T06:27:36.868Z,11.25
2019-03-02T06:28:36.787Z,11.25
2019-03-02T06:29:36.708Z,11.25
2019-03-02T06:30:36.626Z,11.25
2019-03-02T06:31:36.546Z,11.25
2019-03-02T06:32:36.465Z,11.25
2019-03-02T06:33:36.385Z,11.25
2019-03-02T06:34:36.311Z,11.25
2019-03-02T06:35:36.226Z,11.25
2019-03-02T06:36:36.144Z,11.25
2019-03-02T06:37:36.064Z,11.25
2019-03-02T06:38:35.987Z,11.25
2019-03-02T06:39:35.905Z,11.25
2019-03-02T06:40:35.826Z,16.88
2019-03-02T06:41:35.743Z,16.88
2019-03-02T06:42:35.663Z,16.88
2019-03-02T06:43:35.587Z,16.88
2019-03-02T06:44:35.505Z,16.88
2019-03-02T06:45:35.422Z,22.50
2019-03-02T06:46:35.341Z,22.50
2019-03-02T06:47:35.262Z,28.13
2019-03-02T06:48:35.183Z,28.13
2019-03-02T06:49:35.103Z,28.13
2019-03-02T06:50:35.673Z,28.13
2019-03-02T06:51:34.942Z,28.13
2019-03-02T06:52:34.861Z,28.13
2019-03-02T06:53:37.104Z,22.50
2019-03-02T06:54:34.701Z,28.13
2019-03-02T06:55:34.621Z,33.75
2019-03-02T06:56:35.946Z,33.75
2019-03-02T06:57:34.463Z,33.75
2019-03-02T06:58:34.381Z,28.13
2019-03-02T06:59:35.788Z,28.13
2019-03-02T07:00:34.222Z,28.13
2019-03-02T07:01:34.140Z,33.75
2019-03-02T07:02:35.092Z,28.13
2019-03-02T07:03:33.981Z,28.13
2019-03-02T07:04:33.903Z,33.75
2019-03-02T07:05:36.269Z,33.75
2019-03-02T07:06:33.842Z,28.13
2019-03-02T07:07:33.661Z,33.75
2019-03-02T07:08:34.155Z,39.38
2019-03-02T07:09:33.500Z,39.38
2019-03-02T07:10:33.420Z,45.00
2019-03-02T07:11:34.676Z,45.00
2019-03-02T07:12:33.260Z,45.00
2019-03-02T07:13:33.184Z,56.25
2019-03-02T07:14:33.257Z,56.25
2019-03-02T07:15:33.022Z,56.25
2019-03-02T07:16:32.940Z,56.25
2019-03-02T07:17:32.862Z,56.25
2019-03-02T07:18:32.781Z,61.88
2019-03-02T07:19:32.953Z,61.88
2019-03-02T07:20:32.619Z,61.88
2019-03-02T07:21:32.539Z,67.50
2019-03-02T07:22:32.464Z,67.50
2019-03-02T07:23:32.380Z,67.50
2019-03-02T07:24:32.301Z,67.50
2019-03-02T07:25:32.219Z,67.50
2019-03-02T07:26:32.139Z,61.88
2019-03-02T07:27:32.059Z,56.25
2019-03-02T07:28:31.983Z,50.63
2019-03-02T07:29:32.123Z,50.63
2019-03-02T07:30:31.819Z,56.25
2019-03-02T07:31:31.740Z,56.25
2019-03-02T07:32:31.659Z,61.88
2019-03-02T07:33:31.579Z,67.50
2019-03-02T07:34:31.501Z,61.88
2019-03-02T07:35:31.421Z,67.50
2019-03-02T07:36:33.956Z,67.50
2019-03-02T07:37:31.258Z,73.13
2019-03-02T07:38:31.180Z,67.50
2019-03-02T07:39:32.719Z,61.88
2019-03-02T07:40:31.019Z,61.88
2019-03-02T07:41:30.943Z,61.88
2019-03-02T07:42:33.595Z,61.88
2019-03-02T07:43:30.779Z,56.25
2019-03-02T07:44:30.700Z,56.25
2019-03-02T07:45:31.398Z,67.50
2019-03-02T07:46:30.539Z,78.75
2019-03-02T07:47:30.459Z,84.38
2019-03-02T07:48:33.157Z,84.38
2019-03-02T07:49:30.298Z,78.75
2019-03-02T07:50:30.242Z,84.38
2019-03-02T07:51:30.140Z,84.38
2019-03-02T07:52:30.061Z,84.38
2019-03-02T07:53:30.355Z,84.38
2019-03-02T07:54:29.900Z,90.00
2019-03-02T07:55:29.820Z,90.00
2019-03-02T07:56:32.529Z,95.63
2019-03-02T07:57:29.660Z,106.88
2019-03-02T07:58:29.581Z,118.13
2019-03-02T07:59:29.839Z,123.75
2019-03-02T08:00:29.419Z,135.00
2019-03-02T08:01:29.340Z,146.25
2019-03-02T08:02:29.763Z,140.63
2019-03-02T08:03:29.181Z,135.00
2019-03-02T08:04:29.102Z,140.63
2019-03-02T08:05:29.026Z,151.88
2019-03-02T08:06:28.942Z,163.13
2019-03-02T08:07:28.868Z,168.75
2019-03-02T08:08:28.781Z,174.38
2019-03-02T08:09:28.702Z,180.00
2019-03-02T08:10:28.623Z,180.00
2019-03-02T08:11:28.542Z,168.75
2019-03-02T08:12:28.461Z,168.75
2019-03-02T08:13:28.383Z,168.75
2019-03-02T08:14:28.304Z,174.38
2019-03-02T08:15:28.223Z,174.38
2019-03-02T08:16:28.143Z,180.00
2019-03-02T08:17:28.064Z,174.38
2019-03-02T08:18:29.190Z,168.75
2019-03-02T08:19:27.911Z,157.50
2019-03-02T08:20:27.824Z,146.25
2019-03-02T08:21:27.746Z,151.88
2019-03-02T08:22:27.666Z,146.25
2019-03-02T08:23:27.591Z,151.88
2019-03-02T08:24:27.507Z,157.50
2019-03-02T08:25:27.430Z,157.50
2019-03-02T08:26:27.349Z,135.00
2019-03-02T08:27:27.270Z,146.25
2019-03-02T08:28:27.190Z,163.13
2019-03-02T08:29:27.111Z,163.13
2019-03-02T08:30:29.959Z,135.00
2019-03-02T08:31:26.952Z,118.13
2019-03-02T08:32:26.872Z,123.75
2019-03-02T08:33:26.796Z,118.13
2019-03-02T08:34:26.714Z,118.13
2019-03-02T08:35:26.635Z,129.38
2019-03-02T08:36:26.557Z,151.88
2019-03-02T08:37:26.771Z,157.50
2019-03-02T08:38:26.397Z,140.63
2019-03-02T08:39:26.319Z,129.38
2019-03-02T08:40:26.239Z,140.63
2019-03-02T08:41:26.163Z,135.00
2019-03-02T08:42:26.082Z,129.38
2019-03-02T08:43:26.001Z,129.38
2019-03-02T08:44:25.922Z,129.38
2019-03-02T08:45:27.637Z,123.75
2019-03-02T08:46:25.764Z,123.75
2019-03-02T08:47:25.684Z,129.38
2019-03-02T08:48:25.607Z,135.00
2019-03-02T08:49:25.527Z,135.00
2019-03-02T08:50:25.447Z,163.13
2019-03-02T08:51:25.368Z,174.38
2019-03-02T08:52:25.290Z,163.13
2019-03-02T08:53:25.209Z,146.25
2019-03-02T08:54:25.130Z,135.00
2019-03-02T08:55:25.054Z,123.75
2019-03-02T08:56:24.973Z,146.25
2019-03-02T08:57:24.893Z,191.25
2019-03-02T08:58:24.817Z,185.63
2019-03-02T08:59:24.736Z,174.38
2019-03-02T09:00:24.658Z,180.00
2019-03-02T09:01:24.578Z,208.13
2019-03-02T09:02:24.499Z,247.50
2019-03-02T09:03:24.422Z,225.00
2019-03-02T09:04:24.341Z,208.13
2019-03-02T09:05:42.882Z,191.25
2019-03-02T09:06:24.186Z,202.50
2019-03-02T09:07:24.105Z,208.13
2019-03-02T09:08:24.025Z,196.88
2019-03-02T09:09:23.945Z,185.63
2019-03-02T09:10:24.202Z,174.38
2019-03-02T09:11:23.794Z,180.00
2019-03-02T09:12:23.709Z,180.00
2019-03-02T09:13:23.731Z,191.25
2019-03-02T09:14:23.551Z,191.25
2019-03-02T09:15:26.291Z,180.00
2019-03-02T09:16:23.393Z,163.13
2019-03-02T09:17:23.315Z,151.88
2019-03-02T09:18:23.236Z,146.25
2019-03-02T09:19:24.163Z,140.63
2019-03-02T09:20:23.078Z,151.88
2019-03-02T09:21:23.003Z,168.75
2019-03-02T09:22:24.199Z,168.75
2019-03-02T09:23:22.842Z,151.88
2019-03-02T09:24:22.762Z,146.25
2019-03-02T09:25:23.977Z,157.50
2019-03-02T09:26:22.604Z,151.88
2019-03-02T09:27:22.524Z,140.63
2019-03-02T09:28:22.444Z,129.38
2019-03-02T09:29:22.366Z,135.00
2019-03-02T09:30:22.286Z,140.63
2019-03-02T09:31:26.176Z,135.00
2019-03-02T09:32:22.127Z,129.38
2019-03-02T09:33:24.785Z,123.75
2019-03-02T09:34:21.971Z,106.88
2019-03-02T09:35:21.891Z,118.13
2019-03-02T09:36:21.813Z,118.13
2019-03-02T09:37:21.732Z,101.25
2019-03-02T09:38:22.350Z,95.63
2019-03-02T09:39:23.605Z,95.63
2019-03-02T09:40:21.497Z,101.25
2019-03-02T09:41:22.002Z,106.88
2019-03-02T09:42:21.343Z,112.50
2019-03-02T09:43:21.260Z,106.88
2019-03-02T09:44:21.178Z,106.88
2019-03-02T09:45:21.101Z,123.75
2019-03-02T09:46:21.329Z,106.88
2019-03-02T09:47:20.942Z,123.75
2019-03-02T09:48:24.164Z,135.00
2019-03-02T09:49:20.783Z,101.25
2019-03-02T09:50:21.691Z,90.00
2019-03-02T09:51:20.625Z,90.00
2019-03-02T09:52:20.573Z,95.63
2019-03-02T09:53:20.466Z,95.63
2019-03-02T09:54:20.389Z,106.88
2019-03-02T09:55:20.775Z,106.88
2019-03-02T09:56:20.230Z,84.38
2019-03-02T09:57:20.151Z,95.63
2019-03-02T09:58:23.685Z,90.00
2019-03-02T09:59:19.996Z,101.25
2019-03-02T10:00:23.740Z,106.88
2019-03-02T10:01:19.929Z,78.75
2019-03-02T10:02:19.756Z,84.38
2019-03-02T10:03:19.677Z,106.88
2019-03-02T10:04:19.597Z,106.88
2019-03-02T10:05:19.550Z,101.25
2019-03-02T10:06:21.808Z,106.88
2019-03-02T10:07:19.362Z,101.25
2019-03-02T10:08:19.280Z,101.25
2019-03-02T10:09:21.965Z,101.25
2019-03-02T10:10:19.122Z,90.00
2019-03-02T10:11:19.524Z,95.63
2019-03-02T10:12:18.963Z,95.63
2019-03-02T10:13:18.887Z,90.00
2019-03-02T10:14:20.727Z,95.63
2019-03-02T10:15:19.409Z,106.88
2019-03-02T10:16:18.645Z,90.00
2019-03-02T10:17:18.567Z,90.00
2019-03-02T10:18:18.493Z,118.13
2019-03-02T10:19:18.410Z,129.38
2019-03-02T10:20:18.357Z,112.50
2019-03-02T10:21:18.250Z,106.88
2019-03-02T10:22:19.820Z,106.88
2019-03-02T10:23:18.091Z,140.63
2019-03-02T10:24:18.053Z,151.88
2019-03-02T10:25:17.937Z,174.38
2019-03-02T10:26:17.853Z,185.63
2019-03-02T10:27:21.154Z,196.88
2019-03-02T10:28:17.694Z,185.63
2019-03-02T10:29:17.616Z,185.63
2019-03-02T10:30:17.538Z,185.63
2019-03-02T10:31:17.457Z,202.50
2019-03-02T10:32:18.172Z,230.63
2019-03-02T10:33:17.298Z,236.25
2019-03-02T10:34:17.336Z,236.25
2019-03-02T10:35:18.187Z,202.50
2019-03-02T10:36:17.062Z,185.63
2019-03-02T10:37:16.984Z,157.50
2019-03-02T10:38:18.964Z,180.00
2019-03-02T10:39:16.826Z,191.25
2019-03-02T10:40:16.754Z,157.50
2019-03-02T10:41:20.159Z,163.13
2019-03-02T10:42:16.612Z,174.38
2019-03-02T10:43:16.508Z,151.88
2019-03-02T10:44:17.776Z,146.25
2019-03-02T10:45:16.352Z,157.50
2019-03-02T10:46:16.271Z,151.88
2019-03-02T10:47:16.680Z,146.25
2019-03-02T10:48:16.114Z,140.63
2019-03-02T10:49:16.035Z,123.75
2019-03-02T10:50:15.957Z,118.13
2019-03-02T10:51:15.881Z,140.63
2019-03-02T10:52:15.799Z,112.50
2019-03-02T10:53:15.721Z,101.25
2019-03-02T10:54:15.641Z,106.88
2019-03-02T10:55:15.565Z,106.88
2019-03-02T10:56:15.485Z,101.25
2019-03-02T10:57:15.412Z,101.25
2019-03-02T10:58:15.328Z,95.63
2019-03-02T10:59:15.533Z,84.38
2019-03-02T11:00:15.170Z,73.13
2019-03-02T11:01:15.093Z,73.13
2019-03-02T11:02:16.908Z,73.13
2019-03-02T11:03:14.935Z,73.13
2019-03-02T11:04:14.855Z,73.13
2019-03-02T11:05:16.748Z,78.75
2019-03-02T11:06:14.699Z,78.75
2019-03-02T11:07:14.620Z,95.63
2019-03-02T11:08:14.540Z,78.75
2019-03-02T11:09:22.207Z,78.75
2019-03-02T11:10:16.584Z,78.75
2019-03-02T11:11:14.304Z,73.13
2019-03-02T11:12:14.227Z,73.13
2019-03-02T11:13:15.980Z,78.75
2019-03-02T11:14:14.067Z,90.00
2019-03-02T11:15:13.989Z,135.00
2019-03-02T11:16:13.909Z,163.13
2019-03-02T11:17:13.831Z,180.00
2019-03-02T11:18:13.752Z,180.00
2019-03-02T11:19:13.673Z,208.13
2019-03-02T11:20:13.593Z,236.25
2019-03-02T11:21:13.515Z,258.75
2019-03-02T11:22:14.979Z,275.63
2019-03-02T11:23:15.787Z,292.50
2019-03-02T11:24:13.279Z,303.75
2019-03-02T11:25:13.199Z,309.38
2019-03-02T11:26:13.443Z,286.88
2019-03-02T11:27:13.978Z,286.88
2019-03-02T11:28:12.963Z,275.63
2019-03-02T11:29:12.885Z,230.63
2019-03-02T11:30:12.806Z,208.13
2019-03-02T11:31:12.728Z,191.25
2019-03-02T11:32:12.650Z,185.63
2019-03-02T11:33:12.570Z,196.88
2019-03-02T11:34:12.493Z,213.75
2019-03-02T11:35:12.416Z,225.00
2019-03-02T11:36:13.883Z,219.38
2019-03-02T11:37:12.259Z,185.63
2019-03-02T11:38:12.179Z,208.13
2019-03-02T11:39:13.858Z,225.00
2019-03-02T11:40:12.085Z,236.25
2019-03-02T11:41:11.945Z,247.50
2019-03-02T11:42:14.058Z,264.38
2019-03-02T11:43:12.851Z,292.50
2019-03-02T11:44:11.724Z,337.50
2019-03-02T11:45:11.636Z,348.75
2019-03-02T11:46:11.553Z,315.00
2019-03-02T11:47:11.477Z,326.25
2019-03-02T11:48:13.706Z,337.50
2019-03-02T11:49:11.319Z,348.75
2019-03-02T11:50:14.389Z,354.38
2019-03-02T11:51:11.164Z,354.38
2019-03-02T11:52:11.085Z,376.88
2019-03-02T11:53:12.862Z,365.63
2019-03-02T11:54:10.931Z,360.00
2019-03-02T11:55:10.852Z,360.00
2019-03-02T11:56:10.773Z,393.75
2019-03-02T11:57:10.696Z,399.38
2019-03-02T11:58:10.618Z,427.50
2019-03-02T11:59:10.634Z,461.25
2019-03-02T12:00:10.462Z,455.63
2019-03-02T12:01:10.386Z,461.25
2019-03-02T12:02:15.745Z,444.38
2019-03-02T12:03:10.230Z,455.63
2019-03-02T12:04:11.977Z,388.13
2019-03-02T12:05:10.077Z,376.88
2019-03-02T12:06:09.998Z,376.88
2019-03-02T12:07:09.921Z,354.38
2019-03-02T12:08:09.843Z,354.38
2019-03-02T12:09:09.765Z,303.75
2019-03-02T12:10:09.690Z,253.13
2019-03-02T12:11:10.549Z,264.38
2019-03-02T12:12:09.534Z,258.75
2019-03-02T12:13:09.458Z,275.63
2019-03-02T12:14:09.982Z,264.38
2019-03-02T12:15:09.305Z,247.50
2019-03-02T12:16:09.226Z,225.00
2019-03-02T12:17:09.149Z,230.63
2019-03-02T12:18:09.072Z,264.38
2019-03-02T12:19:08.997Z,309.38
2019-03-02T12:20:09.707Z,309.38
2019-03-02T12:21:08.838Z,326.25
2019-03-02T12:22:08.761Z,315.00
2019-03-02T12:23:08.683Z,264.38
2019-03-02T12:24:15.010Z,236.25
2019-03-02T12:25:08.527Z,247.50
2019-03-02T12:26:11.015Z,270.00
2019-03-02T12:27:08.374Z,270.00
2019-03-02T12:28:08.296Z,331.88
2019-03-02T12:29:09.158Z,393.75
2019-03-02T12:30:08.141Z,433.13
2019-03-02T12:31:08.063Z,461.25
2019-03-02T12:32:08.854Z,438.75
2019-03-02T12:33:07.908Z,433.13
2019-03-02T12:34:07.835Z,399.38
2019-03-02T12:35:07.757Z,365.63
2019-03-02T12:36:07.677Z,388.13
2019-03-02T12:37:07.609Z,444.38
2019-03-02T12:38:11.717Z,506.25
2019-03-02T12:39:07.446Z,483.75
2019-03-02T12:40:07.368Z,427.50
2019-03-02T12:41:07.294Z,405.00
2019-03-02T12:42:07.214Z,376.88
2019-03-02T12:43:07.678Z,382.50
2019-03-02T12:44:08.335Z,388.13
2019-03-02T12:45:06.983Z,421.88
2019-03-02T12:46:09.386Z,461.25
2019-03-02T12:47:06.830Z,405.00
2019-03-02T12:48:06.752Z,354.38
2019-03-02T12:49:06.949Z,354.38
2019-03-02T12:50:06.599Z,461.25
2019-03-02T12:51:06.534Z,579.38
2019-03-02T12:52:06.445Z,624.38
2019-03-02T12:53:06.368Z,613.13
2019-03-02T12:54:06.345Z,646.88
2019-03-02T12:55:06.226Z,748.13